createdAt,value
2022-12-22T00:00:59.777Z,96906.00
2022-12-22T00:03:26.598Z,96911.38
2022-12-22T00:05:53.310Z,96898.84
2022-12-22T00:08:19.921Z,96904.03
2022-12-22T00:10:46.642Z,96914.72
2022-12-22T00:13:13.743Z,96917.94
2022-12-22T00:15:40.399Z,96918.31
2022-12-22T00:18:12.069Z,96919.09
2022-12-22T00:20:38.660Z,96914.47
2022-12-22T00:23:05.249Z,96913.63
2022-12-22T00:25:31.881Z,96901.69
2022-12-22T00:27:58.635Z,96901.94
2022-12-22T00:30:25.384Z,96905.13
2022-12-22T00:32:52.122Z,96900.47
2022-12-22T00:35:20.568Z,96904.72
2022-12-22T00:37:47.162Z,96909.84
2022-12-22T00:40:21.429Z,96914.91
2022-12-22T00:42:48.040Z,96911.34
2022-12-22T00:45:14.706Z,96905.06
2022-12-22T00:47:41.296Z,96908.66
2022-12-22T00:50:08.472Z,96899.53
2022-12-22T00:52:35.141Z,96913.06
2022-12-22T00:55:01.814Z,96918.56
2022-12-22T00:57:28.485Z,96923.53
2022-12-22T00:59:55.152Z,96914.44
2022-12-22T01:02:21.888Z,96908.25
2022-12-22T01:04:48.566Z,96910.94
2022-12-22T01:07:15.926Z,96917.81
2022-12-22T01:09:42.511Z,96924.25
2022-12-22T01:12:23.537Z,96927.09
2022-12-22T01:14:50.231Z,96931.25
2022-12-22T01:17:16.848Z,96926.63
2022-12-22T01:19:43.442Z,96932.63
2022-12-22T01:22:13.281Z,96937.97
2022-12-22T01:24:39.924Z,96933.16
2022-12-22T01:27:08.312Z,96921.94
2022-12-22T01:29:34.972Z,96927.97
2022-12-22T01:32:01.581Z,96922.75
2022-12-22T01:34:28.198Z,96923.19
2022-12-22T01:36:54.801Z,96915.97
2022-12-22T01:39:21.380Z,96913.03
2022-12-22T01:41:48.520Z,96908.59
2022-12-22T01:44:16.004Z,96914.59
2022-12-22T01:46:44.244Z,96910.66
2022-12-22T01:49:34.626Z,96906.38
2022-12-22T01:52:01.244Z,96918.06
2022-12-22T01:54:27.883Z,96918.50
2022-12-22T01:56:54.592Z,96913.53
2022-12-22T01:59:21.282Z,96904.81
2022-12-22T02:01:47.993Z,96911.66
2022-12-22T02:04:14.736Z,96906.50
2022-12-22T02:06:42.283Z,96904.88
2022-12-22T02:09:40.042Z,96902.53
2022-12-22T02:12:15.559Z,96906.13
2022-12-22T02:14:49.873Z,96909.63
2022-12-22T02:17:28.590Z,96897.84
2022-12-22T02:20:13.335Z,96885.91
2022-12-22T02:22:57.987Z,96905.22
2022-12-22T02:25:28.345Z,96898.84
2022-12-22T02:27:55.006Z,96898.25
2022-12-22T02:30:21.667Z,96889.03
2022-12-22T02:32:48.279Z,96882.31
2022-12-22T02:35:16.210Z,96893.00
2022-12-22T02:37:45.642Z,96898.53
2022-12-22T02:40:23.955Z,96902.13
2022-12-22T02:42:58.138Z,96911.38
2022-12-22T02:45:48.434Z,96898.53
2022-12-22T02:48:17.360Z,96885.75
2022-12-22T02:50:47.168Z,96872.47
2022-12-22T02:53:14.086Z,96858.81
2022-12-22T02:55:40.762Z,96882.97
2022-12-22T02:58:07.641Z,96888.19
2022-12-22T03:00:34.306Z,96892.69
2022-12-22T03:03:01.343Z,96880.03
2022-12-22T03:05:28.036Z,96880.47
2022-12-22T03:07:54.678Z,96894.91
2022-12-22T03:10:21.367Z,96881.28
2022-12-22T03:12:47.972Z,96891.72
2022-12-22T03:15:14.718Z,96890.13
2022-12-22T03:17:41.363Z,96878.53
2022-12-22T03:20:08.435Z,96878.81
2022-12-22T03:22:35.041Z,96863.16
2022-12-22T03:25:01.676Z,96867.84
2022-12-22T03:27:28.300Z,96866.63
2022-12-22T03:29:54.941Z,96856.72
2022-12-22T03:32:21.664Z,96849.09
2022-12-22T03:34:48.265Z,96861.56
2022-12-22T03:37:14.932Z,96858.06
2022-12-22T03:39:41.575Z,96863.66
2022-12-22T03:42:11.451Z,96859.63
2022-12-22T03:44:38.042Z,96872.31
2022-12-22T03:47:04.715Z,96849.66
2022-12-22T03:49:31.337Z,96850.31
2022-12-22T03:51:57.985Z,96848.44
2022-12-22T03:54:25.309Z,96846.50
2022-12-22T03:56:52.276Z,96849.19
2022-12-22T03:59:19.135Z,96837.81
2022-12-22T04:01:47.617Z,96835.41
2022-12-22T04:04:14.674Z,96833.75
2022-12-22T04:06:41.354Z,96834.56
2022-12-22T04:09:07.965Z,96830.16
2022-12-22T04:11:34.601Z,96815.19
2022-12-22T04:14:01.708Z,96822.69
2022-12-22T04:16:28.362Z,96825.28
2022-12-22T04:18:55.025Z,96823.81
2022-12-22T04:21:21.665Z,96834.25
2022-12-22T04:23:48.268Z,96838.09
2022-12-22T04:26:14.895Z,96840.22
2022-12-22T04:28:41.588Z,96841.75
2022-12-22T04:31:09.374Z,96840.28
2022-12-22T04:33:35.971Z,96838.91
2022-12-22T04:36:02.577Z,96846.28
2022-12-22T04:38:29.172Z,96847.69
2022-12-22T04:40:55.791Z,96844.94
2022-12-22T04:43:22.441Z,96835.00
2022-12-22T04:45:52.816Z,96829.16
2022-12-22T04:48:19.800Z,96816.66
2022-12-22T04:50:46.427Z,96812.47
2022-12-22T04:53:13.088Z,96826.06
2022-12-22T04:55:39.972Z,96833.09
2022-12-22T04:58:06.576Z,96826.81
2022-12-22T05:00:33.219Z,96827.31
2022-12-22T05:03:00.098Z,96821.28
2022-12-22T05:05:26.893Z,96822.53
2022-12-22T05:07:53.551Z,96844.50
2022-12-22T05:10:20.150Z,96842.03
2022-12-22T05:12:46.781Z,96839.50
2022-12-22T05:15:13.422Z,96849.88
2022-12-22T05:17:40.069Z,96835.97
2022-12-22T05:20:07.635Z,96850.81
2022-12-22T05:22:34.224Z,96863.31
2022-12-22T05:25:00.893Z,96850.88
2022-12-22T05:27:27.557Z,96844.88
2022-12-22T05:29:54.187Z,96853.66
2022-12-22T05:32:20.789Z,96842.41
2022-12-22T05:34:47.453Z,96851.28
2022-12-22T05:37:14.144Z,96848.34
2022-12-22T05:39:40.821Z,96856.25
2022-12-22T05:42:07.436Z,96838.66
2022-12-22T05:44:34.061Z,96856.41
2022-12-22T05:47:00.716Z,96865.13
2022-12-22T05:49:27.364Z,96873.06
2022-12-22T05:51:54.168Z,96877.53
2022-12-22T05:54:20.833Z,96890.81
2022-12-22T05:56:47.443Z,96893.66
2022-12-22T05:59:14.105Z,96893.97
2022-12-22T06:01:40.743Z,96902.53
2022-12-22T06:04:07.514Z,96907.09
2022-12-22T06:06:34.301Z,96909.97
2022-12-22T06:09:00.991Z,96926.41
2022-12-22T06:11:27.756Z,96925.81
2022-12-22T06:13:54.427Z,96929.38
2022-12-22T06:16:21.132Z,96925.72
2022-12-22T06:18:47.895Z,96940.88
2022-12-22T06:21:14.504Z,96942.75
2022-12-22T06:23:41.155Z,96940.09
2022-12-22T06:26:08.668Z,96934.56
2022-12-22T06:28:35.327Z,96934.13
2022-12-22T06:31:01.984Z,96946.47
2022-12-22T06:33:28.614Z,96939.81
2022-12-22T06:35:58.888Z,96937.97
2022-12-22T06:38:27.198Z,96932.94
2022-12-22T06:40:53.841Z,96931.88
2022-12-22T06:43:20.487Z,96941.81
2022-12-22T06:45:47.092Z,96939.41
2022-12-22T06:48:13.783Z,96956.69
2022-12-22T06:50:40.471Z,96944.34
2022-12-22T06:53:07.304Z,96957.59
2022-12-22T06:55:33.956Z,96963.16
2022-12-22T06:58:00.653Z,96976.91
2022-12-22T07:00:27.283Z,96966.66
2022-12-22T07:02:54.150Z,96949.59
2022-12-22T07:05:21.006Z,96944.53
2022-12-22T07:07:47.634Z,96945.38
2022-12-22T07:10:14.318Z,96947.50
2022-12-22T07:12:41.024Z,96953.44
2022-12-22T07:15:08.493Z,96956.63
2022-12-22T07:17:35.134Z,96953.66
2022-12-22T07:20:01.787Z,96957.38
2022-12-22T07:22:30.643Z,96956.19
2022-12-22T07:24:58.352Z,96958.97
2022-12-22T07:27:25.014Z,96964.44
2022-12-22T07:29:51.685Z,96955.03
2022-12-22T07:32:18.392Z,96963.69
2022-12-22T07:34:45.093Z,96975.44
2022-12-22T07:37:11.741Z,96969.22
2022-12-22T07:39:38.378Z,96976.03
2022-12-22T07:42:05.125Z,96957.88
2022-12-22T07:44:31.761Z,96964.75
2022-12-22T07:46:59.028Z,96968.03
2022-12-22T07:49:25.786Z,96960.63
2022-12-22T07:51:52.476Z,96978.66
2022-12-22T07:54:19.232Z,96978.66
2022-12-22T07:56:46.577Z,97000.03
2022-12-22T07:59:13.463Z,97005.41
2022-12-22T08:01:40.330Z,97011.97
2022-12-22T08:04:07.848Z,97020.72
2022-12-22T08:06:34.565Z,97016.47
2022-12-22T08:09:01.596Z,97006.47
2022-12-22T08:11:28.231Z,97024.63
2022-12-22T08:14:00.954Z,97040.09
2022-12-22T08:16:28.518Z,97030.69
2022-12-22T08:18:55.260Z,97037.91
2022-12-22T08:21:21.898Z,97037.63
2022-12-22T08:23:48.509Z,97039.94
2022-12-22T08:26:27.107Z,97034.72
2022-12-22T08:29:05.202Z,97042.13
2022-12-22T08:31:31.888Z,97042.97
2022-12-22T08:33:59.117Z,97038.94
2022-12-22T08:36:25.819Z,97047.84
2022-12-22T08:38:52.490Z,97055.16
2022-12-22T08:41:19.121Z,97053.06
2022-12-22T08:43:45.715Z,97056.09
2022-12-22T08:46:12.324Z,97067.28
2022-12-22T08:48:38.968Z,97059.38
2022-12-22T08:51:05.793Z,97067.84
2022-12-22T08:54:04.536Z,97061.81
2022-12-22T08:56:18.965Z,97083.31
2022-12-22T08:58:45.582Z,97086.72
2022-12-22T09:01:18.797Z,97096.41
2022-12-22T09:03:49.544Z,97089.19
2022-12-22T09:06:16.853Z,97082.66
2022-12-22T09:08:43.494Z,97089.13
2022-12-22T09:11:10.131Z,97079.31
2022-12-22T09:13:36.791Z,97080.13
2022-12-22T09:16:09.654Z,97083.06
2022-12-22T09:18:36.345Z,97088.13
2022-12-22T09:21:02.992Z,97089.56
2022-12-22T09:23:30.809Z,97094.25
2022-12-22T09:25:57.487Z,97095.91
2022-12-22T09:28:24.161Z,97092.97
2022-12-22T09:30:51.419Z,97093.84
2022-12-22T09:33:18.121Z,97099.97
2022-12-22T09:35:44.779Z,97093.66
2022-12-22T09:38:11.434Z,97092.31
2022-12-22T09:40:38.041Z,97092.38
2022-12-22T09:43:04.709Z,97088.09
2022-12-22T09:45:31.452Z,97084.97
2022-12-22T09:47:58.117Z,97093.97
2022-12-22T09:50:25.577Z,97093.66
2022-12-22T09:52:57.827Z,97093.53
2022-12-22T09:55:24.311Z,97088.06
2022-12-22T09:57:51.357Z,97082.81
2022-12-22T10:00:20.159Z,97079.59
2022-12-22T10:03:20.738Z,97072.25
2022-12-22T10:05:54.726Z,97065.00
2022-12-22T10:08:28.771Z,97066.97
2022-12-22T10:10:55.805Z,97069.66
2022-12-22T10:13:22.538Z,97081.78
2022-12-22T10:15:49.349Z,97084.09
2022-12-22T10:18:17.710Z,97082.13
2022-12-22T10:21:06.339Z,97086.94
2022-12-22T10:23:33.028Z,97081.66
2022-12-22T10:29:14.654Z,97084.28
2022-12-22T10:32:05.306Z,97074.63
2022-12-22T10:34:32.022Z,97074.88
2022-12-22T10:37:02.848Z,97074.94
2022-12-22T10:39:33.841Z,97071.41
2022-12-22T10:42:02.227Z,97066.84
2022-12-22T10:44:30.439Z,97058.53
2022-12-22T10:47:00.935Z,97062.16
2022-12-22T10:52:30.141Z,97052.84
2022-12-22T10:55:29.766Z,97057.19
2022-12-22T10:58:18.413Z,97050.75
2022-12-22T11:00:45.189Z,97055.50
2022-12-22T11:03:12.245Z,97051.97
2022-12-22T11:05:39.046Z,97049.81
2022-12-22T11:08:18.720Z,97043.53
2022-12-22T11:10:54.441Z,97044.38
2022-12-22T11:13:33.292Z,97041.53
2022-12-22T11:16:13.737Z,97032.88
2022-12-22T11:18:50.200Z,97024.44
2022-12-22T11:21:24.049Z,97027.78
2022-12-22T11:24:11.424Z,97028.88
2022-12-22T11:26:56.722Z,97033.69
2022-12-22T11:29:28.232Z,97024.22
2022-12-22T11:32:04.121Z,97026.84
2022-12-22T11:34:48.845Z,97021.50
2022-12-22T11:37:49.439Z,97032.97
2022-12-22T11:40:30.744Z,97033.75
2022-12-22T11:43:10.523Z,97033.75
2022-12-22T11:45:58.974Z,97020.72
2022-12-22T11:48:54.535Z,97011.38
2022-12-22T11:51:42.762Z,97005.38
2022-12-22T11:54:27.982Z,96994.56
2022-12-22T11:57:16.509Z,96992.03
2022-12-22T11:59:49.324Z,96983.00
2022-12-22T12:02:28.280Z,96978.97
2022-12-22T12:05:18.400Z,96983.91
2022-12-22T12:07:54.184Z,96996.72
2022-12-22T12:10:24.725Z,96988.38
2022-12-22T12:13:12.881Z,96986.47
2022-12-22T12:15:47.973Z,96983.69
2022-12-22T12:18:35.114Z,96979.56
2022-12-22T12:21:16.489Z,96978.97
2022-12-22T12:23:58.202Z,96974.16
2022-12-22T12:26:25.888Z,96968.25
2022-12-22T12:29:09.045Z,96979.56
2022-12-22T12:31:42.502Z,96968.50
2022-12-22T12:34:14.336Z,96977.59
2022-12-22T12:36:57.077Z,96986.59
2022-12-22T12:39:29.683Z,96981.19
2022-12-22T12:42:20.543Z,96968.81
2022-12-22T12:44:47.209Z,96978.94
2022-12-22T12:47:33.218Z,96984.66
2022-12-22T12:49:59.711Z,96980.81
2022-12-22T12:52:41.306Z,96984.59
2022-12-22T12:55:38.161Z,96980.28
2022-12-22T12:58:05.418Z,96977.47
2022-12-22T13:00:31.953Z,96979.47
2022-12-22T13:02:59.812Z,96986.72
2022-12-22T13:05:34.168Z,96990.78
2022-12-22T13:08:13.685Z,96992.69
2022-12-22T13:10:48.624Z,96985.31
2022-12-22T13:13:24.235Z,96988.44
2022-12-22T13:16:03.002Z,96975.50
2022-12-22T13:18:35.537Z,96979.38
2022-12-22T13:21:42.038Z,96970.25
2022-12-22T13:24:22.898Z,96971.25
2022-12-22T13:26:42.527Z,96970.34
2022-12-22T13:29:17.321Z,96958.78
2022-12-22T13:31:52.415Z,96963.69
2022-12-22T13:35:04.870Z,96969.38
2022-12-22T13:37:41.253Z,96958.16
2022-12-22T13:40:18.853Z,96969.25
2022-12-22T13:42:56.369Z,96957.34
2022-12-22T13:45:29.040Z,96958.47
2022-12-22T13:47:55.667Z,96960.97
2022-12-22T13:50:26.180Z,96951.28
2022-12-22T13:52:53.026Z,96952.84
2022-12-22T13:55:23.562Z,96946.13
2022-12-22T13:57:58.065Z,96950.78
2022-12-22T14:00:25.986Z,96935.59
2022-12-22T14:02:53.701Z,96936.50
2022-12-22T14:05:20.415Z,96937.56
2022-12-22T14:08:01.086Z,96934.81
2022-12-22T14:10:29.832Z,96938.59
2022-12-22T14:12:56.429Z,96947.19
2022-12-22T14:15:23.056Z,96950.22
2022-12-22T14:17:53.067Z,96947.78
2022-12-22T14:20:36.106Z,96945.69
2022-12-22T14:23:12.700Z,96940.53
2022-12-22T14:25:40.484Z,96953.00
2022-12-22T14:28:28.744Z,96949.72
2022-12-22T14:30:59.022Z,96943.31
2022-12-22T14:33:25.485Z,96947.13
2022-12-22T14:35:52.152Z,96944.09
2022-12-22T14:38:25.991Z,96951.81
2022-12-22T14:40:57.115Z,96954.59
2022-12-22T14:43:29.705Z,96946.72
2022-12-22T14:46:05.371Z,96951.59
2022-12-22T14:48:33.743Z,96953.53
2022-12-22T14:51:00.405Z,96956.38
2022-12-22T14:53:42.797Z,96944.72
2022-12-22T14:56:13.333Z,96944.28
2022-12-22T14:58:44.072Z,96940.59
2022-12-22T15:01:27.486Z,96940.38
2022-12-22T15:03:58.525Z,96936.75
2022-12-22T15:06:28.227Z,96929.97
2022-12-22T15:09:06.869Z,96925.41
2022-12-22T15:11:33.527Z,96930.94
2022-12-22T15:14:00.271Z,96935.81
2022-12-22T15:16:27.090Z,96929.97
2022-12-22T15:18:53.730Z,96929.25
2022-12-22T15:21:20.376Z,96925.59
2022-12-22T15:23:47.017Z,96927.66
2022-12-22T15:26:13.711Z,96924.00
2022-12-22T15:28:40.414Z,96927.66
2022-12-22T15:31:12.900Z,96920.22
2022-12-22T15:33:39.581Z,96917.97
2022-12-22T15:36:06.410Z,96923.53
2022-12-22T15:38:38.552Z,96917.28
2022-12-22T15:41:06.168Z,96924.63
2022-12-22T15:46:19.496Z,96908.63
2022-12-22T15:48:46.242Z,96908.47
2022-12-22T15:51:22.255Z,96900.59
2022-12-22T15:53:48.905Z,96900.69
2022-12-22T15:56:21.162Z,96899.06
2022-12-22T15:58:47.795Z,96887.91
2022-12-22T16:01:14.461Z,96892.91
2022-12-22T16:03:41.219Z,96890.50
2022-12-22T16:06:14.021Z,96886.28
2022-12-22T16:08:43.266Z,96884.00
2022-12-22T16:11:09.915Z,96872.97
2022-12-22T16:13:36.766Z,96867.09
2022-12-22T16:16:03.982Z,96863.25
2022-12-22T16:18:30.866Z,96867.44
2022-12-22T16:20:58.137Z,96853.69
2022-12-22T16:23:25.581Z,96851.44
2022-12-22T16:26:00.660Z,96860.00
2022-12-22T16:28:28.245Z,96857.06
2022-12-22T16:30:54.888Z,96857.66
2022-12-22T16:33:21.559Z,96863.69
2022-12-22T16:35:48.177Z,96852.53
2022-12-22T16:38:19.026Z,96852.34
2022-12-22T16:40:50.595Z,96844.63
2022-12-22T16:43:49.034Z,96839.78
2022-12-22T16:46:18.477Z,96841.13
2022-12-22T16:48:46.845Z,96840.47
2022-12-22T16:51:23.138Z,96825.91
2022-12-22T16:53:49.736Z,96808.47
2022-12-22T16:56:23.614Z,96805.94
2022-12-22T16:58:50.401Z,96805.91
2022-12-22T17:01:20.261Z,96800.72
2022-12-22T17:03:46.966Z,96793.56
2022-12-22T17:06:13.638Z,96794.91
2022-12-22T17:08:40.259Z,96788.00
2022-12-22T17:11:10.949Z,96781.69
2022-12-22T17:13:37.940Z,96783.00
2022-12-22T17:16:05.134Z,96781.63
2022-12-22T17:18:31.820Z,96779.06
2022-12-22T17:20:58.871Z,96784.78
2022-12-22T17:23:34.160Z,96791.75
2022-12-22T17:26:01.701Z,96784.03
2022-12-22T17:28:29.029Z,96785.63
2022-12-22T17:30:55.820Z,96786.72
2022-12-22T17:33:22.514Z,96802.38
2022-12-22T17:35:49.372Z,96802.78
2022-12-22T17:38:17.426Z,96796.72
2022-12-22T17:40:44.139Z,96796.91
2022-12-22T17:43:14.805Z,96802.06
2022-12-22T17:45:42.067Z,96799.09
2022-12-22T17:48:08.731Z,96794.56
2022-12-22T17:50:35.550Z,96778.41
2022-12-22T17:53:02.289Z,96780.31
2022-12-22T17:56:05.808Z,96780.78
2022-12-22T17:58:16.614Z,96767.06
2022-12-22T18:00:43.235Z,96776.88
2022-12-22T18:03:13.512Z,96767.31
2022-12-22T18:05:42.279Z,96765.31
2022-12-22T18:08:13.369Z,96762.63
2022-12-22T18:10:40.038Z,96772.38
2022-12-22T18:13:20.704Z,96768.75
2022-12-22T18:15:47.428Z,96766.34
2022-12-22T18:18:15.234Z,96761.94
2022-12-22T18:20:42.387Z,96759.94
2022-12-22T18:23:28.269Z,96772.06
2022-12-22T18:25:54.975Z,96772.69
2022-12-22T18:28:21.616Z,96777.38
2022-12-22T18:30:48.222Z,96782.47
2022-12-22T18:33:14.815Z,96782.50
2022-12-22T18:35:41.584Z,96784.47
2022-12-22T18:38:17.858Z,96789.72
2022-12-22T18:40:44.491Z,96789.84
2022-12-22T18:43:13.965Z,96793.53
2022-12-22T18:45:40.736Z,96800.31
2022-12-22T18:48:07.445Z,96804.94
2022-12-22T18:50:34.079Z,96803.31
2022-12-22T18:53:03.032Z,96805.66
2022-12-22T18:55:31.342Z,96807.31
2022-12-22T18:57:58.425Z,96814.09
2022-12-22T19:00:29.470Z,96817.81
2022-12-22T19:03:00.038Z,96807.84
2022-12-22T19:05:31.362Z,96806.06
2022-12-22T19:07:58.157Z,96808.06
2022-12-22T19:10:30.717Z,96812.38
2022-12-22T19:12:57.366Z,96817.38
2022-12-22T19:15:29.560Z,96815.06
2022-12-22T19:17:56.136Z,96816.41
2022-12-22T19:20:23.613Z,96808.31
2022-12-22T19:22:50.274Z,96806.59
2022-12-22T19:25:24.678Z,96798.00
2022-12-22T19:27:52.284Z,96792.06
2022-12-22T19:30:20.858Z,96783.91
2022-12-22T19:32:49.002Z,96779.91
2022-12-22T19:35:20.118Z,96781.66
2022-12-22T19:37:47.132Z,96774.78
2022-12-22T19:40:14.526Z,96764.69
2022-12-22T19:42:41.773Z,96777.47
2022-12-22T19:45:28.018Z,96768.88
2022-12-22T19:47:55.460Z,96774.91
2022-12-22T19:50:23.852Z,96771.88
2022-12-22T19:52:51.106Z,96772.09
2022-12-22T19:55:17.811Z,96774.63
2022-12-22T19:57:44.947Z,96765.53
2022-12-22T20:00:20.128Z,96756.19
2022-12-22T20:02:47.359Z,96751.63
2022-12-22T20:05:32.271Z,96745.34
2022-12-22T20:08:00.240Z,96739.38
2022-12-22T20:10:28.494Z,96743.31
2022-12-22T20:13:00.286Z,96741.75
2022-12-22T20:15:31.541Z,96736.09
2022-12-22T20:17:58.163Z,96749.53
2022-12-22T20:20:37.054Z,96744.59
2022-12-22T20:23:06.401Z,96742.28
2022-12-22T20:25:38.399Z,96748.84
2022-12-22T20:28:11.143Z,96760.56
2022-12-22T20:30:38.798Z,96758.38
2022-12-22T20:33:05.445Z,96759.25
2022-12-22T20:35:32.060Z,96754.34
2022-12-22T20:37:58.671Z,96762.16
2022-12-22T20:40:27.593Z,96757.72
2022-12-22T20:42:54.239Z,96753.38
2022-12-22T20:45:20.983Z,96747.78
2022-12-22T20:47:48.649Z,96736.75
2022-12-22T20:50:20.524Z,96744.31
2022-12-22T20:52:47.780Z,96738.50
2022-12-22T20:55:15.741Z,96742.63
2022-12-22T20:57:43.203Z,96755.06
2022-12-22T21:00:23.887Z,96758.38
2022-12-22T21:02:50.738Z,96770.09
2022-12-22T21:05:18.592Z,96786.69
2022-12-22T21:07:46.177Z,96780.72
2022-12-22T21:10:17.630Z,96781.00
2022-12-22T21:12:44.246Z,96779.88
2022-12-22T21:15:16.395Z,96770.34
2022-12-22T21:17:46.110Z,96756.41
2022-12-22T21:20:17.781Z,96757.34
2022-12-22T21:22:44.425Z,96747.69
2022-12-22T21:25:12.282Z,96746.41
2022-12-22T21:27:39.699Z,96750.63
2022-12-22T21:30:17.987Z,96755.72
2022-12-22T21:32:44.757Z,96752.19
2022-12-22T21:35:15.999Z,96763.50
2022-12-22T21:37:43.226Z,96762.34
2022-12-22T21:40:23.085Z,96767.38
2022-12-22T21:42:49.792Z,96759.06
2022-12-22T21:45:18.667Z,96756.94
2022-12-22T21:47:45.365Z,96752.81
2022-12-22T21:50:26.743Z,96739.63
2022-12-22T21:52:53.383Z,96735.91
2022-12-22T21:55:21.971Z,96738.25
2022-12-22T21:57:48.631Z,96741.53
2022-12-22T22:00:16.357Z,96740.59
2022-12-22T22:02:43.059Z,96736.56
2022-12-22T22:05:33.964Z,96745.72
2022-12-22T22:08:00.866Z,96748.03
2022-12-22T22:10:38.090Z,96752.06
2022-12-22T22:13:04.807Z,96756.31
2022-12-22T22:15:31.748Z,96752.75
2022-12-22T22:18:02.963Z,96743.25
2022-12-22T22:20:33.276Z,96742.53
2022-12-22T22:22:59.977Z,96747.06
2022-12-22T22:25:26.665Z,96747.59
2022-12-22T22:27:53.309Z,96743.25
2022-12-22T22:30:24.358Z,96742.47
2022-12-22T22:32:51.084Z,96725.44
2022-12-22T22:35:17.777Z,96728.34
2022-12-22T22:37:44.747Z,96730.97
2022-12-22T22:40:13.808Z,96731.16
2022-12-22T22:42:40.566Z,96735.50
2022-12-22T22:45:07.626Z,96744.50
2022-12-22T22:47:34.672Z,96741.78
2022-12-22T22:50:05.941Z,96751.84
2022-12-22T22:52:33.589Z,96737.00
2022-12-22T22:55:00.202Z,96730.66
2022-12-22T22:57:26.836Z,96738.22
2022-12-22T22:59:53.424Z,96736.06
2022-12-22T23:02:20.242Z,96745.97
2022-12-22T23:04:47.088Z,96738.84
2022-12-22T23:07:13.735Z,96737.03
2022-12-22T23:09:40.403Z,96738.38
2022-12-22T23:12:07.003Z,96735.50
2022-12-22T23:14:33.655Z,96738.47
2022-12-22T23:17:00.255Z,96735.16
2022-12-22T23:19:26.864Z,96747.16
2022-12-22T23:21:53.553Z,96741.78
2022-12-22T23:24:20.226Z,96740.38
2022-12-22T23:26:47.492Z,96738.94
2022-12-22T23:29:14.092Z,96739.69
2022-12-22T23:31:40.739Z,96734.59
2022-12-22T23:34:07.389Z,96744.00
2022-12-22T23:36:33.973Z,96738.38
2022-12-22T23:39:00.700Z,96737.25
2022-12-22T23:41:27.300Z,96750.25
2022-12-22T23:43:54.090Z,96731.56
2022-12-22T23:46:20.772Z,96724.34
2022-12-22T23:48:54.666Z,96721.66
2022-12-22T23:51:22.123Z,96716.88
2022-12-22T23:53:48.757Z,96708.78
2022-12-22T23:56:15.440Z,96718.97
2022-12-22T23:58:42.106Z,96710.22
